White Star — ZCNP2 — position and weather

sailwx.info

Track history (hours):
 
Tides and Currents Weather Stations Pressure Air Temp Water Temp Dewpoint Dewpoint Depression Visibility Wind Speed Wind Dir Waves Ship Positions

White Star

Last reported at 2017-Oct-16 01:35 UTC. Time now 2017-Dec-11 00:35 UTC.
Position N 50°09' W 005°03'.
Warning: this ship's position is 55 days out of date.

Length 50 m; draft 2.6 m.

Type: Pleasure craft. MMSI: 319035000.

Date/timePositionNaut miles runAvg speedWind from/ knotsBaromVisibWave heightAir tempDewpointWater temp
2017-Oct-16 01:35N 50°09' W 005°03'4 0.1
2017-Oct-14 10:36N 50°05' W 005°01'6917.4
2017-Oct-14 06:38N 48°58' W 005°26'4416.4
2017-Oct-14 03:58N 48°20' W 005°60'2216.6
2017-Oct-14 02:38N 48°01' W 006°15'55216.6
2017-Oct-12 17:24N 39°11' W 009°51'616.4
2017-Oct-12 17:00N 39°05' W 009°51'816.7
2017-Oct-12 16:31N 38°57' W 009°52'916.8
2017-Oct-12 15:58N 38°47' W 009°52'1114.2
2017-Oct-12 15:13N 38°37' W 009°52'316.2
2017-Oct-12 15:01N 38°37' W 009°47'713.4
2017-Oct-12 14:30N 38°34' W 009°40'2717.4
2017-Oct-12 12:59N 38°08' W 009°34'7216.8
2017-Oct-12 08:40N 36°57' W 009°19'316.4
2017-Oct-12 08:30N 36°54' W 009°18'816.6
2017-Oct-12 08:00N 36°48' W 009°11'1517.0
2017-Oct-12 07:07N 36°42' W 008°54'416.9
2017-Oct-12 06:54N 36°41' W 008°49'4117.2
2017-Oct-12 04:30N 36°29' W 008°00'34710.9
2017-Oct-10 20:42N 37°22' W 000°51'315.5
2017-Oct-10 20:30N 37°24' W 000°49'1415.5
2017-Oct-10 19:35N 37°33' W 000°35'115.6
2017-Oct-10 19:30N 37°34' W 000°34'815.5
2017-Oct-10 18:58N 37°41' W 000°28'39015.5
2017-Oct-09 17:47N 42°39' E 005°02'  
Track history (hours):
 
Tides and Currents Weather Stations Pressure Air Temp Water Temp Dewpoint Dewpoint Depression Visibility Wind Speed Wind Dir Waves Ship Positions

White Star

Last reported at 2017-Oct-16 01:35 UTC. Time now 2017-Dec-11 00:35 UTC.
Position N 50°09' W 005°03'.
Warning: this ship's position is 55 days out of date.

Length 50 m; draft 2.6 m.

Type: Pleasure craft. MMSI: 319035000.

Date/timePositionNaut miles runAvg speedWind from/ knotsBaromVisibWave heightAir tempDewpointWater temp
2017-Oct-16 01:35N 50°09' W 005°03'4 0.1
2017-Oct-14 10:36N 50°05' W 005°01'6917.4
2017-Oct-14 06:38N 48°58' W 005°26'4416.4
2017-Oct-14 03:58N 48°20' W 005°60'2216.6
2017-Oct-14 02:38N 48°01' W 006°15'55216.6
2017-Oct-12 17:24N 39°11' W 009°51'616.4
2017-Oct-12 17:00N 39°05' W 009°51'816.7
2017-Oct-12 16:31N 38°57' W 009°52'916.8
2017-Oct-12 15:58N 38°47' W 009°52'1114.2
2017-Oct-12 15:13N 38°37' W 009°52'316.2
2017-Oct-12 15:01N 38°37' W 009°47'713.4
2017-Oct-12 14:30N 38°34' W 009°40'2717.4
2017-Oct-12 12:59N 38°08' W 009°34'7216.8
2017-Oct-12 08:40N 36°57' W 009°19'316.4
2017-Oct-12 08:30N 36°54' W 009°18'816.6
2017-Oct-12 08:00N 36°48' W 009°11'1517.0
2017-Oct-12 07:07N 36°42' W 008°54'416.9
2017-Oct-12 06:54N 36°41' W 008°49'4117.2
2017-Oct-12 04:30N 36°29' W 008°00'34710.9
2017-Oct-10 20:42N 37°22' W 000°51'315.5
2017-Oct-10 20:30N 37°24' W 000°49'1415.5
2017-Oct-10 19:35N 37°33' W 000°35'115.6
2017-Oct-10 19:30N 37°34' W 000°34'815.5
2017-Oct-10 18:58N 37°41' W 000°28'39015.5
2017-Oct-09 17:47N 42°39' E 005°02'  

Dump ship's entire track history